createdAt,value
2019-03-30T00:01:26.371Z,4.40
2019-03-30T00:03:55.320Z,4.30
2019-03-30T00:06:24.348Z,4.30
2019-03-30T00:08:53.330Z,4.30
2019-03-30T00:11:22.358Z,4.30
2019-03-30T00:13:51.276Z,4.30
2019-03-30T00:16:20.250Z,4.30
2019-03-30T00:18:49.199Z,4.30
2019-03-30T00:21:18.207Z,4.40
2019-03-30T00:23:47.213Z,4.30
2019-03-30T00:26:16.220Z,4.30
2019-03-30T00:28:45.190Z,4.30
2019-03-30T00:31:14.149Z,4.30
2019-03-30T00:33:43.071Z,4.30
2019-03-30T00:36:12.030Z,4.20
2019-03-30T00:38:40.931Z,4.20
2019-03-30T00:41:10.626Z,4.20
2019-03-30T00:43:39.534Z,4.20
2019-03-30T00:46:08.483Z,4.10
2019-03-30T00:48:37.405Z,4.10
2019-03-30T00:51:06.357Z,4.10
2019-03-30T00:53:35.259Z,4.10
2019-03-30T00:56:04.203Z,4.00
2019-03-30T00:58:33.115Z,4.10
2019-03-30T01:01:02.289Z,4.10
2019-03-30T01:03:31.208Z,4.00
2019-03-30T01:06:00.157Z,4.00
2019-03-30T01:08:29.081Z,4.00
2019-03-30T01:10:58.039Z,4.00
2019-03-30T01:13:26.961Z,4.00
2019-03-30T01:15:55.915Z,4.00
2019-03-30T01:18:24.825Z,4.00
2019-03-30T01:20:53.778Z,3.90
2019-03-30T01:23:22.691Z,4.00
2019-03-30T01:25:51.613Z,4.00
2019-03-30T01:28:20.553Z,4.00
2019-03-30T01:30:49.520Z,4.10
2019-03-30T01:33:18.476Z,4.10
2019-03-30T01:35:47.408Z,4.00
2019-03-30T01:38:16.371Z,4.10
2019-03-30T01:40:45.281Z,4.10
2019-03-30T01:43:14.243Z,4.10
2019-03-30T01:45:43.147Z,4.00
2019-03-30T01:48:12.101Z,4.00
2019-03-30T01:50:41.014Z,4.00
2019-03-30T01:53:09.962Z,4.00
2019-03-30T01:55:38.889Z,4.00
2019-03-30T01:58:07.851Z,4.00
2019-03-30T02:00:36.754Z,4.00
2019-03-30T02:03:05.721Z,3.90
2019-03-30T02:05:34.630Z,4.00
2019-03-30T02:08:03.583Z,4.00
2019-03-30T02:10:40.787Z,4.00
2019-03-30T02:13:09.730Z,3.90
2019-03-30T02:15:38.648Z,3.90
2019-03-30T02:18:07.803Z,3.90
2019-03-30T02:20:41.576Z,3.80
2019-03-30T02:23:10.930Z,3.80
2019-03-30T02:25:39.857Z,3.80
2019-03-30T02:28:09.702Z,3.80
2019-03-30T02:30:38.627Z,3.80
2019-03-30T02:33:07.888Z,3.80
2019-03-30T02:35:36.802Z,3.80
2019-03-30T02:38:05.752Z,3.80
2019-03-30T02:40:34.691Z,3.80
2019-03-30T02:43:03.653Z,3.80
2019-03-30T02:45:32.666Z,3.90
2019-03-30T02:48:01.629Z,3.90
2019-03-30T02:50:47.795Z,3.80
2019-03-30T02:53:01.096Z,3.80
2019-03-30T02:55:30.139Z,3.80
2019-03-30T02:57:59.085Z,3.90
2019-03-30T03:00:28.044Z,3.80
2019-03-30T03:02:57.338Z,3.80
2019-03-30T03:05:26.297Z,3.80
2019-03-30T03:07:55.200Z,3.80
2019-03-30T03:10:24.365Z,3.80
2019-03-30T03:12:53.266Z,3.80
2019-03-30T03:15:22.221Z,3.70
2019-03-30T03:17:51.132Z,3.80
2019-03-30T03:20:20.081Z,3.80
2019-03-30T03:22:49.025Z,3.80
2019-03-30T03:25:17.974Z,3.70
2019-03-30T03:27:46.876Z,3.70
2019-03-30T03:30:16.048Z,3.80
2019-03-30T03:32:45.121Z,3.70
2019-03-30T03:35:14.098Z,3.70
2019-03-30T03:37:46.093Z,3.70
2019-03-30T03:40:13.598Z,3.70
2019-03-30T03:42:42.524Z,3.70
2019-03-30T03:45:11.591Z,3.70
2019-03-30T03:47:40.503Z,3.70
2019-03-30T03:50:12.408Z,3.70
2019-03-30T03:52:41.413Z,3.70
2019-03-30T03:55:10.903Z,3.70
2019-03-30T03:57:42.966Z,3.70
2019-03-30T04:00:12.215Z,3.70
2019-03-30T04:02:42.018Z,3.60
2019-03-30T04:05:11.287Z,3.60
2019-03-30T04:07:41.658Z,3.70
2019-03-30T04:10:12.208Z,3.60
2019-03-30T04:12:43.834Z,3.60
2019-03-30T04:15:15.731Z,3.60
2019-03-30T04:17:44.630Z,3.50
2019-03-30T04:20:15.742Z,3.60
2019-03-30T04:22:44.680Z,3.60
2019-03-30T04:25:15.235Z,3.50
2019-03-30T04:27:44.442Z,3.60
2019-03-30T04:30:13.339Z,3.50
2019-03-30T04:32:42.297Z,3.50
2019-03-30T04:35:11.226Z,3.50
2019-03-30T04:37:40.185Z,3.50
2019-03-30T04:40:09.096Z,3.50
2019-03-30T04:42:38.152Z,3.50
2019-03-30T04:45:08.880Z,3.50
2019-03-30T04:47:37.835Z,3.50
2019-03-30T04:50:07.349Z,3.40
2019-03-30T04:52:36.286Z,3.30
2019-03-30T04:55:06.901Z,3.30
2019-03-30T04:57:35.848Z,3.30
2019-03-30T05:00:07.185Z,3.20
2019-03-30T05:02:36.133Z,3.20
2019-03-30T05:05:06.639Z,3.30
2019-03-30T05:07:35.595Z,3.30
2019-03-30T05:10:06.625Z,3.30
2019-03-30T05:12:35.576Z,3.40
2019-03-30T05:15:08.546Z,3.30
2019-03-30T05:17:46.778Z,3.40
2019-03-30T05:20:08.183Z,3.40
2019-03-30T05:22:37.130Z,3.50
2019-03-30T05:25:06.245Z,3.50
2019-03-30T05:27:35.208Z,3.50
2019-03-30T05:30:05.032Z,3.60
2019-03-30T05:32:33.975Z,3.60
2019-03-30T05:35:02.892Z,3.70
2019-03-30T05:37:31.839Z,3.70
2019-03-30T05:40:00.743Z,3.80
2019-03-30T05:42:29.724Z,3.80
2019-03-30T05:44:58.650Z,3.90
2019-03-30T05:47:27.681Z,4.00
2019-03-30T05:49:56.598Z,4.00
2019-03-30T05:52:26.610Z,4.10
2019-03-30T05:54:56.059Z,4.20
2019-03-30T05:57:24.962Z,4.20
2019-03-30T05:59:55.934Z,4.30
2019-03-30T06:02:24.470Z,4.30
2019-03-30T06:04:53.414Z,4.40
2019-03-30T06:07:22.343Z,4.40
2019-03-30T06:09:51.291Z,4.40
2019-03-30T06:12:20.214Z,4.40
2019-03-30T06:14:49.573Z,4.50
2019-03-30T06:17:18.470Z,4.50
2019-03-30T06:19:47.525Z,4.70
2019-03-30T06:22:16.435Z,4.70
2019-03-30T06:24:45.386Z,4.80
2019-03-30T06:27:14.294Z,4.80
2019-03-30T06:29:43.263Z,4.90
2019-03-30T06:32:12.252Z,5.00
2019-03-30T06:34:41.186Z,5.00
2019-03-30T06:37:10.105Z,5.10
2019-03-30T06:39:39.057Z,5.20
2019-03-30T06:42:07.967Z,5.20
2019-03-30T06:44:36.917Z,5.30
2019-03-30T06:47:05.838Z,5.30
2019-03-30T06:49:34.785Z,5.40
2019-03-30T06:52:03.707Z,5.40
2019-03-30T06:54:32.663Z,5.50
2019-03-30T06:57:01.580Z,5.60
2019-03-30T06:59:30.529Z,5.70
2019-03-30T07:01:59.426Z,5.80
2019-03-30T07:04:28.382Z,5.90
2019-03-30T07:06:58.098Z,6.00
2019-03-30T07:09:30.317Z,6.10
2019-03-30T07:12:00.639Z,6.20
2019-03-30T07:14:32.763Z,6.30
2019-03-30T07:17:03.938Z,6.40
2019-03-30T07:19:34.766Z,6.50
2019-03-30T07:22:03.667Z,6.70
2019-03-30T07:24:32.584Z,6.80
2019-03-30T07:27:01.547Z,6.90
2019-03-30T07:29:30.556Z,7.00
2019-03-30T07:31:59.510Z,7.10
2019-03-30T07:34:28.419Z,7.30
2019-03-30T07:36:57.411Z,7.40
2019-03-30T07:39:26.453Z,7.50
2019-03-30T07:41:55.400Z,7.60
2019-03-30T07:44:24.322Z,7.70
2019-03-30T07:46:53.287Z,7.80
2019-03-30T07:49:22.193Z,7.90
2019-03-30T07:51:51.149Z,8.00
2019-03-30T07:54:20.049Z,8.10
2019-03-30T07:56:49.008Z,8.30
2019-03-30T07:59:17.920Z,8.40
2019-03-30T08:01:46.935Z,8.50
2019-03-30T08:04:16.154Z,8.60
2019-03-30T08:06:45.131Z,8.60
2019-03-30T08:09:14.070Z,8.70
2019-03-30T08:11:43.150Z,8.80
2019-03-30T08:14:12.141Z,8.90
2019-03-30T08:16:41.068Z,9.00
2019-03-30T08:19:10.068Z,9.10
2019-03-30T08:21:39.137Z,9.20
2019-03-30T08:24:08.086Z,9.30
2019-03-30T08:26:37.096Z,9.40
2019-03-30T08:29:06.100Z,9.50
2019-03-30T08:31:35.185Z,9.70
2019-03-30T08:34:04.364Z,9.80
2019-03-30T08:36:33.372Z,10.00
2019-03-30T08:39:02.805Z,10.10
2019-03-30T08:41:32.565Z,10.20
2019-03-30T08:44:01.604Z,10.40
2019-03-30T08:46:30.516Z,10.50
2019-03-30T08:48:59.475Z,10.70
2019-03-30T08:51:28.381Z,10.70
2019-03-30T08:53:57.338Z,10.70
2019-03-30T08:56:27.961Z,10.90
2019-03-30T08:58:56.856Z,11.10
2019-03-30T09:01:25.762Z,11.20
2019-03-30T09:03:54.731Z,11.30
2019-03-30T09:06:23.654Z,11.50
2019-03-30T09:08:52.589Z,11.60
2019-03-30T09:11:21.502Z,11.70
2019-03-30T09:13:50.444Z,11.80
2019-03-30T09:16:19.365Z,11.90
2019-03-30T09:18:48.335Z,12.00
2019-03-30T09:21:17.268Z,12.10
2019-03-30T09:23:46.223Z,12.20
2019-03-30T09:26:16.770Z,12.40
2019-03-30T09:28:46.143Z,12.50
2019-03-30T09:31:15.061Z,12.60
2019-03-30T09:33:44.023Z,12.60
2019-03-30T09:36:12.941Z,12.70
2019-03-30T09:38:41.997Z,12.80
2019-03-30T09:41:10.906Z,13.00
2019-03-30T09:43:41.587Z,13.20
2019-03-30T09:46:10.712Z,13.30
2019-03-30T09:48:39.663Z,13.40
2019-03-30T09:51:08.572Z,13.40
2019-03-30T09:53:37.714Z,13.40
2019-03-30T09:56:06.603Z,13.40
2019-03-30T09:58:35.654Z,13.50
2019-03-30T10:01:04.569Z,13.60
2019-03-30T10:03:33.535Z,13.70
2019-03-30T10:06:02.449Z,13.80
2019-03-30T10:08:31.377Z,13.70
2019-03-30T10:11:00.332Z,13.80
2019-03-30T10:13:29.259Z,14.00
2019-03-30T10:15:58.271Z,13.90
2019-03-30T10:18:27.205Z,13.90
2019-03-30T10:20:56.175Z,14.10
2019-03-30T10:23:25.286Z,14.10
2019-03-30T10:25:54.377Z,14.20
2019-03-30T10:28:23.479Z,14.30
2019-03-30T10:30:52.673Z,14.50
2019-03-30T10:33:21.768Z,14.50
2019-03-30T10:35:50.761Z,14.60
2019-03-30T10:38:19.729Z,14.60
2019-03-30T10:40:48.782Z,14.60
2019-03-30T10:43:17.711Z,14.70
2019-03-30T10:45:46.777Z,14.80
2019-03-30T10:48:15.743Z,14.90
2019-03-30T10:50:44.742Z,15.10
2019-03-30T10:53:13.673Z,15.30
2019-03-30T10:55:42.668Z,15.40
2019-03-30T10:58:11.592Z,15.50
2019-03-30T11:00:41.618Z,15.40
2019-03-30T11:03:10.660Z,15.50
2019-03-30T11:05:39.663Z,15.60
2019-03-30T11:08:08.642Z,15.70
2019-03-30T11:10:37.724Z,15.60
2019-03-30T11:13:06.740Z,15.30
2019-03-30T11:15:35.697Z,16.80
2019-03-30T11:18:04.616Z,15.70
2019-03-30T11:20:33.543Z,15.60
2019-03-30T11:23:02.507Z,15.70
2019-03-30T11:25:31.460Z,15.80
2019-03-30T11:28:00.406Z,15.70
2019-03-30T11:30:29.349Z,15.80
2019-03-30T11:32:58.332Z,16.00
2019-03-30T11:35:27.264Z,15.50
2019-03-30T11:37:56.239Z,16.30
2019-03-30T11:40:25.180Z,16.30
2019-03-30T11:42:56.572Z,16.20
2019-03-30T11:45:25.549Z,16.20
2019-03-30T11:48:00.446Z,15.90
2019-03-30T11:50:29.393Z,16.00
2019-03-30T11:52:58.346Z,16.00
2019-03-30T11:55:27.417Z,16.10
2019-03-30T11:57:56.471Z,16.10
2019-03-30T12:00:25.458Z,16.30
2019-03-30T12:02:54.444Z,16.50
2019-03-30T12:05:23.354Z,16.60
2019-03-30T12:07:52.305Z,16.40
2019-03-30T12:10:21.233Z,16.20
2019-03-30T12:12:50.210Z,16.10
2019-03-30T12:15:19.131Z,16.30
2019-03-30T12:17:48.099Z,16.30
2019-03-30T12:20:17.140Z,16.40
2019-03-30T12:22:46.116Z,16.40
2019-03-30T12:25:15.063Z,16.20
2019-03-30T12:27:44.442Z,16.40
2019-03-30T12:30:13.847Z,16.40
2019-03-30T12:32:42.864Z,16.50
2019-03-30T12:35:11.775Z,16.50
2019-03-30T12:37:40.787Z,16.40
2019-03-30T12:40:10.055Z,16.30
2019-03-30T12:42:39.071Z,16.20
2019-03-30T12:45:08.635Z,16.50
2019-03-30T12:47:37.557Z,16.40
2019-03-30T12:50:09.683Z,16.60
2019-03-30T12:52:38.626Z,16.50
2019-03-30T12:55:07.719Z,16.40
2019-03-30T12:57:36.629Z,16.50
2019-03-30T13:00:09.014Z,16.50
2019-03-30T13:02:37.933Z,16.40
2019-03-30T13:07:39.030Z,16.40
2019-03-30T13:10:08.678Z,16.20
2019-03-30T13:12:37.594Z,16.10
2019-03-30T13:15:07.987Z,16.20
2019-03-30T13:17:36.887Z,16.20
2019-03-30T13:20:06.946Z,16.50
2019-03-30T13:22:35.891Z,16.50
2019-03-30T13:25:05.648Z,16.70
2019-03-30T13:27:34.568Z,16.70
2019-03-30T13:30:04.422Z,16.70
2019-03-30T13:32:33.436Z,16.40
2019-03-30T13:35:02.419Z,16.30
2019-03-30T13:37:31.450Z,16.20
2019-03-30T13:40:00.528Z,16.10
2019-03-30T13:42:29.505Z,16.20
2019-03-30T13:45:03.059Z,16.10
2019-03-30T13:47:30.345Z,16.10
2019-03-30T13:49:59.311Z,16.00
2019-03-30T13:52:28.221Z,16.10
2019-03-30T13:54:57.172Z,16.30
2019-03-30T13:57:26.087Z,16.40
2019-03-30T13:59:55.063Z,16.60
2019-03-30T14:02:25.900Z,16.50
2019-03-30T14:04:54.948Z,16.60
2019-03-30T14:07:23.867Z,16.80
2019-03-30T14:09:52.843Z,16.80
2019-03-30T14:12:21.755Z,16.80
2019-03-30T14:14:50.745Z,16.80
2019-03-30T14:17:20.259Z,16.60
2019-03-30T14:19:49.526Z,16.60
2019-03-30T14:22:19.524Z,16.40
2019-03-30T14:24:48.440Z,16.10
2019-03-30T14:27:17.393Z,15.80
2019-03-30T14:29:46.305Z,15.80
2019-03-30T14:32:15.271Z,15.70
2019-03-30T14:34:44.208Z,15.80
2019-03-30T14:37:13.177Z,16.00
2019-03-30T14:39:42.084Z,15.90
2019-03-30T14:42:11.038Z,16.00
2019-03-30T14:44:39.955Z,16.00
2019-03-30T14:47:08.915Z,15.80
2019-03-30T14:49:39.911Z,15.60
2019-03-30T14:52:08.744Z,15.50
2019-03-30T14:54:51.788Z,15.50
2019-03-30T14:57:08.372Z,15.50
2019-03-30T14:59:37.293Z,15.40
2019-03-30T15:02:06.248Z,15.50
2019-03-30T15:04:35.162Z,15.50
2019-03-30T15:07:04.127Z,15.40
2019-03-30T15:09:33.070Z,15.30
2019-03-30T15:12:02.029Z,15.30
2019-03-30T15:14:30.935Z,15.40
2019-03-30T15:16:59.899Z,15.30
2019-03-30T15:19:28.817Z,15.20
2019-03-30T15:21:58.114Z,15.10
2019-03-30T15:24:27.026Z,14.90
2019-03-30T15:27:00.399Z,14.70
2019-03-30T15:29:26.536Z,14.70
2019-03-30T15:31:55.498Z,14.60
2019-03-30T15:34:24.447Z,14.70
2019-03-30T15:36:53.419Z,14.70
2019-03-30T15:39:22.338Z,14.60
2019-03-30T15:41:51.295Z,14.70
2019-03-30T15:44:20.205Z,14.70
2019-03-30T15:46:49.165Z,14.80
2019-03-30T15:49:18.067Z,14.70
2019-03-30T15:51:57.521Z,14.70
2019-03-30T15:54:26.441Z,14.60
2019-03-30T15:56:55.405Z,14.80
2019-03-30T15:59:24.302Z,14.60
2019-03-30T16:01:53.272Z,14.50
2019-03-30T16:04:22.204Z,14.30
2019-03-30T16:06:51.163Z,14.30
2019-03-30T16:09:20.069Z,14.30
2019-03-30T16:11:48.992Z,14.20
2019-03-30T16:14:17.948Z,14.30
2019-03-30T16:16:46.864Z,14.30
2019-03-30T16:19:15.925Z,14.20
2019-03-30T16:21:44.932Z,14.20
2019-03-30T16:24:14.009Z,14.10
2019-03-30T16:26:42.906Z,14.00
2019-03-30T16:29:11.953Z,13.80
2019-03-30T16:31:40.887Z,13.70
2019-03-30T16:34:09.840Z,13.70
2019-03-30T16:36:38.755Z,13.80
2019-03-30T16:39:07.808Z,13.80
2019-03-30T16:41:36.727Z,13.70
2019-03-30T16:44:05.675Z,13.70
2019-03-30T16:46:34.590Z,13.70
2019-03-30T16:49:03.589Z,13.50
2019-03-30T16:51:32.495Z,13.10
2019-03-30T16:54:01.444Z,12.80
2019-03-30T16:56:30.355Z,12.60
2019-03-30T16:58:59.316Z,12.40
2019-03-30T17:01:28.263Z,12.30
2019-03-30T17:03:57.235Z,12.10
2019-03-30T17:06:26.252Z,11.80
2019-03-30T17:08:55.212Z,11.60
2019-03-30T17:11:24.125Z,11.40
2019-03-30T17:13:53.086Z,11.30
2019-03-30T17:16:21.995Z,11.20
2019-03-30T17:18:50.950Z,11.10
2019-03-30T17:21:19.875Z,11.10
2019-03-30T17:23:48.842Z,11.00
2019-03-30T17:26:17.906Z,10.90
2019-03-30T17:28:47.037Z,10.60
2019-03-30T17:31:15.990Z,10.50
2019-03-30T17:33:44.909Z,10.40
2019-03-30T17:36:13.931Z,10.30
2019-03-30T17:38:44.405Z,10.20
2019-03-30T17:41:13.621Z,10.10
2019-03-30T17:43:42.596Z,9.90
2019-03-30T17:46:11.592Z,9.80
2019-03-30T17:48:40.617Z,9.70
2019-03-30T17:51:09.590Z,9.50
2019-03-30T17:53:39.533Z,9.40
2019-03-30T17:56:08.726Z,9.30
2019-03-30T17:58:37.710Z,9.30
2019-03-30T18:01:06.680Z,9.20
2019-03-30T18:03:35.672Z,9.10
2019-03-30T18:06:04.781Z,9.00
2019-03-30T18:08:33.691Z,8.90
2019-03-30T18:11:04.288Z,8.80
2019-03-30T18:13:36.624Z,8.80
2019-03-30T18:16:03.894Z,8.70
2019-03-30T18:18:32.831Z,8.60
2019-03-30T18:21:01.846Z,8.50
2019-03-30T18:23:30.787Z,8.40
2019-03-30T18:25:59.795Z,8.40
2019-03-30T18:28:28.701Z,8.30
2019-03-30T18:30:57.655Z,8.20
2019-03-30T18:33:27.441Z,8.10
2019-03-30T18:35:56.798Z,8.00
2019-03-30T18:38:25.805Z,8.00
2019-03-30T18:40:54.794Z,7.90
2019-03-30T18:43:23.745Z,7.80
2019-03-30T18:45:52.840Z,7.70
2019-03-30T18:48:21.788Z,7.70
2019-03-30T18:50:50.936Z,7.60
2019-03-30T18:53:19.927Z,7.60
2019-03-30T18:55:48.901Z,7.50
2019-03-30T18:58:17.865Z,7.40
2019-03-30T19:00:46.773Z,7.30
2019-03-30T19:03:15.809Z,7.20
2019-03-30T19:05:44.824Z,7.10
2019-03-30T19:08:13.883Z,7.00
2019-03-30T19:10:42.798Z,7.00
2019-03-30T19:13:13.349Z,6.90
2019-03-30T19:15:42.372Z,6.80
2019-03-30T19:18:11.437Z,6.70
2019-03-30T19:20:40.377Z,6.60
2019-03-30T19:23:09.447Z,6.60
2019-03-30T19:25:38.432Z,6.50
2019-03-30T19:28:07.411Z,6.50
2019-03-30T19:30:36.463Z,6.40
2019-03-30T19:33:05.571Z,6.30
2019-03-30T19:35:34.568Z,6.30
2019-03-30T19:38:03.554Z,6.30
2019-03-30T19:40:32.442Z,6.30
2019-03-30T19:43:01.529Z,6.30
2019-03-30T19:45:30.454Z,6.30
2019-03-30T19:47:59.419Z,6.30
2019-03-30T19:50:28.359Z,6.30
2019-03-30T19:52:57.354Z,6.30
2019-03-30T19:55:26.314Z,6.30
2019-03-30T19:57:55.348Z,6.40
2019-03-30T20:00:24.336Z,6.50
2019-03-30T20:02:53.312Z,6.50
2019-03-30T20:05:22.249Z,6.60
2019-03-30T20:07:53.097Z,6.60
2019-03-30T20:10:22.314Z,6.60
2019-03-30T20:12:51.320Z,6.60
2019-03-30T20:15:20.225Z,6.70
2019-03-30T20:17:49.237Z,6.70
2019-03-30T20:20:18.163Z,6.80
2019-03-30T20:22:47.637Z,6.80
2019-03-30T20:25:18.338Z,6.80
2019-03-30T20:27:47.302Z,6.80
2019-03-30T20:30:18.872Z,6.80
2019-03-30T20:32:48.040Z,6.70
2019-03-30T20:35:18.841Z,6.80
2019-03-30T20:37:49.599Z,6.80
2019-03-30T20:40:20.040Z,6.80
2019-03-30T20:42:50.809Z,6.80
2019-03-30T20:45:23.102Z,6.80
2019-03-30T20:50:42.921Z,6.70
2019-03-30T20:53:11.914Z,6.00
2019-03-30T20:55:41.089Z,6.80
2019-03-30T20:58:11.886Z,6.80
2019-03-30T21:00:40.839Z,6.80
2019-03-30T21:03:09.747Z,6.80
2019-03-30T21:05:39.795Z,6.80
2019-03-30T21:08:09.570Z,6.80
2019-03-30T21:10:39.899Z,6.90
2019-03-30T21:13:09.142Z,6.90
2019-03-30T21:15:38.807Z,6.90
2019-03-30T21:18:07.730Z,7.00
2019-03-30T21:20:37.024Z,7.00
2019-03-30T21:23:06.959Z,7.00
2019-03-30T21:25:36.982Z,7.00
2019-03-30T21:28:10.070Z,7.10
2019-03-30T21:30:40.483Z,7.10
2019-03-30T21:33:10.249Z,7.10
2019-03-30T21:35:39.337Z,7.10
2019-03-30T21:38:08.251Z,7.10
2019-03-30T21:40:37.350Z,7.20
2019-03-30T21:43:06.347Z,7.10
2019-03-30T21:45:35.317Z,7.20
2019-03-30T21:48:06.685Z,7.20
2019-03-30T21:50:39.405Z,7.20
2019-03-30T21:53:08.412Z,7.30
2019-03-30T21:55:38.494Z,7.20
2019-03-30T21:58:09.202Z,7.30
2019-03-30T22:00:43.037Z,7.30
2019-03-30T22:03:16.563Z,7.30
2019-03-30T22:05:45.476Z,7.30
2019-03-30T22:08:17.226Z,7.30
2019-03-30T22:10:45.091Z,7.30
2019-03-30T22:13:14.041Z,7.40
2019-03-30T22:15:42.952Z,7.40
2019-03-30T22:18:11.902Z,7.40
2019-03-30T22:20:43.168Z,7.40
2019-03-30T22:23:12.115Z,7.40
2019-03-30T22:25:42.404Z,7.40
2019-03-30T22:28:12.144Z,7.40
2019-03-30T22:30:43.171Z,7.40
2019-03-30T22:33:12.280Z,7.40
2019-03-30T22:35:42.425Z,7.40
2019-03-30T22:38:11.375Z,7.40
2019-03-30T22:40:41.678Z,7.50
2019-03-30T22:43:10.862Z,7.50
2019-03-30T22:45:39.759Z,7.50
2019-03-30T22:48:08.704Z,7.50
2019-03-30T22:50:37.610Z,7.50
2019-03-30T22:53:07.243Z,7.50
2019-03-30T22:55:36.250Z,7.50
2019-03-30T22:58:05.199Z,7.50
2019-03-30T23:00:39.004Z,7.50
2019-03-30T23:03:07.095Z,7.50
2019-03-30T23:05:36.020Z,7.50
2019-03-30T23:08:05.432Z,7.50
2019-03-30T23:10:34.337Z,7.50
2019-03-30T23:13:03.346Z,7.50
2019-03-30T23:15:32.255Z,7.50
2019-03-30T23:18:01.414Z,7.60
2019-03-30T23:20:30.303Z,7.50
2019-03-30T23:22:59.206Z,7.50
2019-03-30T23:25:28.372Z,7.50
2019-03-30T23:27:57.371Z,7.50
2019-03-30T23:30:26.690Z,7.60
2019-03-30T23:32:55.625Z,7.50
2019-03-30T23:35:24.665Z,7.50
2019-03-30T23:37:53.578Z,7.50
2019-03-30T23:40:22.529Z,7.50
2019-03-30T23:42:51.435Z,7.50
2019-03-30T23:45:20.382Z,7.50
2019-03-30T23:47:49.288Z,7.50
2019-03-30T23:50:18.341Z,7.50
2019-03-30T23:52:47.251Z,7.50
2019-03-30T23:55:16.190Z,7.40
2019-03-30T23:57:45.096Z,7.40
